| time (UTC) | temp F | wind direction | speed MPH | gust MPH | rain 1hr in | rain 24hr in | rain mn in | humidity % | barometer mb |
| 20260508203053 | 67 | 135 | 1.0 | 3.0 | 0.00 | 0.00 | 0.00 | 51 | 1013.0 |
| 20260508202523 | 67 | 135 | 2.0 | 3.0 | 0.00 | 0.00 | 0.00 | 51 | 1012.6 |
| 20260508202025 | 67 | 135 | 2.0 | 2.0 | 0.00 | 0.00 | 0.00 | 53 | 1012.6 |
| 20260508200625 | 0 | 0.0 | 0.0 | 0.00 | 0.00 | 0.00 | 1013.0 | ||
| 20260508195054 | 0 | 0.0 | 0.0 | 0.00 | 0.00 | 0.00 | 1013.3 | ||
| 20260508191935 | 68 | 135 | 2.0 | 3.0 | 0.00 | 0.00 | 0.00 | 51 | 1013.7 |
| 20260508191422 | 68 | 135 | 3.0 | 3.0 | 0.00 | 0.00 | 0.00 | 50 | 1013.7 |
| 20260508190653 | 0 | 0.0 | 0.0 | 0.00 | 0.00 | 0.00 | 1013.7 | ||
| 20260508184112 | 68 | 135 | 2.0 | 3.0 | 0.00 | 0.00 | 0.00 | 50 | 1014.4 |
| 20260508183553 | 0 | 0.0 | 0.0 | 0.00 | 0.00 | 0.00 | 1014.4 | ||
| 20260508181051 | 67 | 135 | 1.0 | 1.0 | 0.00 | 0.00 | 0.00 | 49 | 1014.4 |
| 20260508180223 | 0 | 0.0 | 0.0 | 0.00 | 0.00 | 0.00 | 1014.4 | ||
| 20260508173249 | 66 | 135 | 2.0 | 3.0 | 0.00 | 0.00 | 0.00 | 52 | 1015.2 |
| 20260508172721 | 66 | 135 | 2.0 | 3.0 | 0.00 | 0.00 | 0.00 | 52 | 1015.2 |
| 20260508172450 | 0 | 0.0 | 0.0 | 0.00 | 0.00 | 0.00 | 1015.2 | ||
| 20260508164352 | 0 | 0.0 | 0.0 | 0.00 | 0.00 | 0.00 | 1015.9 | ||
| 20260508162449 | 0 | 0.0 | 0.0 | 0.00 | 0.00 | 0.00 | 1016.3 | ||
| 20260508160618 | 62 | 135 | 0.0 | 0.0 | 0.00 | 0.00 | 0.00 | 57 | 1016.3 |
| 20260508155949 | 62 | 135 | 0.0 | 0.0 | 0.00 | 0.00 | 0.00 | 57 | 1016.6 |
| 20260508155449 | 61 | 135 | 0.0 | 0.0 | 0.00 | 0.00 | 0.00 | 61 | 1016.6 |
| 20260508154418 | 0 | 0.0 | 0.0 | 0.00 | 0.00 | 0.00 | 1016.6 | ||
| 20260508151248 | 61 | 135 | 0.0 | 0.0 | 0.00 | 0.00 | 0.00 | 67 | 1017.3 |
| 20260508150246 | 61 | 135 | 0.0 | 0.0 | 0.00 | 0.00 | 0.00 | 67 | 1017.0 |
| 20260508145319 | 59 | 0.0 | 0.0 | 0.00 | 0.00 | 0.00 | 71 | 1017.0 | |
| 20260508143847 | 0 | 0.0 | 0.0 | 0.00 | 0.00 | 0.00 | 1017.3 | ||
| 20260508140846 | 57 | 135 | 3.0 | 3.0 | 0.00 | 0.00 | 0.00 | 73 | 1017.3 |
| 20260508140348 | 0 | 0.0 | 0.0 | 0.00 | 0.00 | 0.00 | 1017.8 | ||
| 20260508134317 | 57 | 135 | 0.0 | 0.0 | 0.00 | 0.00 | 0.00 | 94 | 1017.3 |
| 20260508133248 | 57 | 135 | 0.0 | 0.0 | 0.00 | 0.00 | 0.00 | 94 | 1017.8 |
| 20260508133019 | 0 | 0.0 | 0.0 | 0.00 | 0.00 | 0.00 | 1017.3 | ||
| 20260508124519 | 46 | 135 | 0.0 | 0.0 | 0.00 | 0.00 | 0.00 | 99 | 1017.3 |
| 20260508124013 | 46 | 135 | 0.0 | 0.0 | 0.00 | 0.00 | 0.00 | 99 | 1017.3 |
| 20260508123513 | 42 | 135 | 0.0 | 0.0 | 0.00 | 0.00 | 0.00 | 99 | 1017.3 |
| 20260508122615 | 41 | 135 | 0.0 | 0.0 | 0.00 | 0.00 | 0.00 | 99 | 1017.0 |
| 20260508121544 | 40 | 135 | 0.0 | 0.0 | 0.00 | 0.00 | 0.00 | 99 | 1017.0 |
| 20260508120815 | 0 | 0.0 | 0.0 | 0.00 | 0.00 | 0.00 | 1016.6 | ||
| 20260508114429 | 40 | 135 | 0.0 | 0.0 | 0.00 | 0.00 | 0.00 | 99 | 1016.3 |
| 20260508113915 | 0 | 0.0 | 0.0 | 0.00 | 0.00 | 0.00 | 1016.3 | ||
| 20260508112146 | 0 | 0.0 | 0.0 | 0.00 | 0.00 | 0.00 | 1015.9 | ||
| 20260508104016 | 0 | 0.0 | 0.0 | 0.00 | 0.02 | 0.00 | 1015.5 | ||
| 20260508100645 | 0 | 0.0 | 0.0 | 0.00 | 0.02 | 0.00 | 1015.2 | ||
| 20260508094943 | 40 | 135 | 0.0 | 0.0 | 0.00 | 0.02 | 0.00 | 99 | 1015.2 |
| 20260508094312 | 40 | 135 | 0.0 | 0.0 | 0.00 | 0.02 | 0.00 | 99 | 1014.7 |
| 20260508093812 | 41 | 135 | 0.0 | 0.0 | 0.00 | 0.02 | 0.00 | 99 | 1014.7 |
| 20260508092813 | 0 | 0.0 | 0.0 | 0.00 | 0.02 | 0.00 | 1015.2 | ||
| 20260508085742 | 42 | 135 | 0.0 | 0.0 | 0.00 | 0.02 | 0.00 | 99 | 1014.7 |
| 20260508085131 | 42 | 135 | 0.0 | 0.0 | 0.00 | 0.02 | 0.00 | 99 | 1014.7 |
| 20260508084612 | 0 | 0.0 | 0.0 | 0.00 | 0.02 | 0.00 | 1014.7 | ||
| 20260508080541 | 43 | 135 | 0.0 | 0.0 | 0.00 | 0.02 | 0.00 | 99 | 1014.7 |
| 20260508075844 | 43 | 135 | 0.0 | 0.0 | 0.00 | 0.02 | 0.00 | 99 | 1014.4 |
| 20260508074641 | 43 | 135 | 0.0 | 0.0 | 0.00 | 0.02 | 0.00 | 99 | 1014.7 |
| 20260508073941 | 43 | 135 | 0.0 | 0.0 | 0.00 | 0.02 | 0.00 | 99 | 1014.7 |
| 20260508073442 | 0 | 0.0 | 0.0 | 0.00 | 0.02 | 0.00 | 1014.4 | ||
| 20260508071644 | 0 | 0.0 | 0.0 | 0.00 | 0.02 | 0.00 | 1014.4 | ||
| 20260508065513 | 44 | 135 | 0.0 | 0.0 | 0.00 | 0.02 | 0.00 | 99 | 1014.4 |
| 20260508063539 | 44 | 135 | 0.0 | 1.0 | 0.00 | 0.02 | 0.00 | 99 | 1014.4 |
| 20260508062310 | 44 | 135 | 0.0 | 0.0 | 0.00 | 0.02 | 0.00 | 99 | 1014.7 |
| 20260508061612 | 0 | 0.0 | 0.0 | 0.00 | 0.02 | 0.00 | 1014.7 | ||
| 20260508055411 | 45 | 135 | 0.0 | 0.0 | 0.00 | 0.02 | 0.00 | 99 | 1014.7 |
| 20260508054639 | 45 | 90 | 0.0 | 0.0 | 0.00 | 0.02 | 0.00 | 99 | 1014.7 |
| 20260508054141 | 0 | 0.0 | 0.0 | 0.00 | 0.02 | 0.00 | 1014.7 | ||
| 20260508051139 | 0 | 0.0 | 0.0 | 0.00 | 0.02 | 0.00 | 1015.2 | ||
| 20260508044110 | 0 | 0.0 | 0.0 | 0.00 | 0.02 | 0.00 | 1014.4 | ||
| 20260508040809 | 44 | 135 | 0.0 | 0.0 | 0.00 | 0.02 | 0.00 | 98 | 1014.4 |
| 20260508035508 | 0 | 0.0 | 0.0 | 0.00 | 0.02 | 0.02 | 1014.4 | ||
| 20260508033952 | 44 | 135 | 0.0 | 0.0 | 0.00 | 0.02 | 0.02 | 98 | 1014.4 |
| 20260508033438 | 45 | 135 | 0.0 | 0.0 | 0.00 | 0.02 | 0.02 | 98 | 1014.4 |
| 20260508032929 | 45 | 135 | 0.0 | 0.0 | 0.00 | 0.02 | 0.02 | 98 | 1014.7 |
| 20260508032408 | 45 | 135 | 0.0 | 0.0 | 0.00 | 0.02 | 0.02 | 98 | 1014.7 |
| 20260508031819 | 45 | 135 | 0.0 | 0.0 | 0.00 | 0.02 | 0.02 | 98 | 1014.7 |
| 20260508031316 | 45 | 135 | 0.0 | 0.0 | 0.00 | 0.02 | 0.02 | 98 | 1014.7 |
| 20260508030809 | 0 | 0.0 | 0.0 | 0.00 | 0.02 | 0.02 | 1014.7 | ||
| 20260508023141 | 46 | 135 | 0.0 | 0.0 | 0.00 | 0.02 | 0.02 | 98 | 1014.4 |
| 20260508021236 | 0 | 0.0 | 0.0 | 0.00 | 0.02 | 0.02 | 1014.1 | ||
| 20260508014707 | 47 | 135 | 0.0 | 0.0 | 0.00 | 0.02 | 0.02 | 97 | 1013.7 |
| 20260508013536 | 48 | 135 | 0.0 | 0.0 | 0.00 | 0.02 | 0.02 | 97 | 1013.7 |
| 20260508012608 | 0 | 0.0 | 0.0 | 0.00 | 0.02 | 0.02 | 1013.7 | ||
| 20260508011535 | 48 | 135 | 0.0 | 0.0 | 0.00 | 0.02 | 0.02 | 96 | 1013.3 |
| 20260508011037 | 48 | 135 | 0.0 | 0.0 | 0.00 | 0.02 | 0.02 | 95 | 1013.3 |
| 20260508010104 | 48 | 135 | 0.0 | 0.0 | 0.00 | 0.02 | 0.02 | 95 | 1013.3 |
| 20260508005536 | 48 | 135 | 0.0 | 0.0 | 0.00 | 0.02 | 0.02 | 95 | 1013.3 |
| 20260508004637 | 0 | 0.0 | 0.0 | 0.00 | 0.02 | 0.02 | 1013.3 | ||
| 20260508002937 | 0 | 0.0 | 0.0 | 0.00 | 0.03 | 0.02 | 1013.3 | ||
| 20260508001508 | 50 | 135 | 0.0 | 0.0 | 0.00 | 0.03 | 0.02 | 94 | 1013.0 |
| 20260508001006 | 0 | 0.0 | 0.0 | 0.00 | 0.03 | 0.02 | 1013.0 | ||
| 20260507235824 | 51 | 135 | 0.0 | 0.0 | 0.00 | 0.03 | 0.02 | 95 | 1013.0 |
| 20260507235316 | 51 | 135 | 0.0 | 0.0 | 0.00 | 0.03 | 0.02 | 94 | 1013.0 |
| 20260507235037 | 0 | 0.0 | 0.0 | 0.00 | 0.03 | 0.02 | 1013.0 | ||
| 20260507231536 | 0 | 0.0 | 0.0 | 0.00 | 0.03 | 0.02 | 1012.6 | ||
| 20260507225425 | 52 | 135 | 2.0 | 3.0 | 0.00 | 0.03 | 0.02 | 91 | 1012.6 |
| 20260507224905 | 52 | 135 | 0.0 | 0.0 | 0.00 | 0.03 | 0.02 | 90 | 1012.6 |
| 20260507223906 | 0 | 0.0 | 0.0 | 0.00 | 0.03 | 0.02 | 1012.6 | ||
| 20260507221506 | 53 | 135 | 0.0 | 2.0 | 0.00 | 0.03 | 0.02 | 89 | 1012.6 |
| 20260507221004 | 0 | 0.0 | 0.0 | 0.00 | 0.03 | 0.02 | 1012.3 | ||
| 20260507215816 | 53 | 135 | 0.0 | 0.0 | 0.00 | 0.03 | 0.02 | 89 | 1012.3 |
| 20260507215306 | 53 | 135 | 2.0 | 2.0 | 0.00 | 0.03 | 0.02 | 89 | 1012.3 |
| 20260507214503 | 53 | 135 | 2.0 | 2.0 | 0.00 | 0.03 | 0.02 | 89 | 1012.3 |
| 20260507214004 | 0 | 0.0 | 0.0 | 0.00 | 0.03 | 0.02 | 1011.8 | ||
| 20260507212732 | 56 | 135 | 0.0 | 0.0 | 0.00 | 0.03 | 0.02 | 89 | 1011.5 |
| 20260507210901 | 56 | 135 | 0.0 | 0.0 | 0.00 | 0.03 | 0.02 | 90 | 1011.2 |
| 20260507210031 | 56 | 135 | 0.0 | 0.0 | 0.00 | 0.03 | 0.02 | 89 | 1011.2 |
| 20260507205603 | 0 | 0.0 | 0.0 | 0.00 | 0.03 | 0.02 | 1011.2 |